Aérodrome :
LOGIN :

S'inscrire | Disclaimer

   EN    FR    IT 

 










Légende :    VFR   VFR Marginal   IFR   IFR Intensif   IFR Très Intensif
Visi : 
Plafond : 
>= 8 km
>= 3000ft
5 à 8 km
1000 à 3000 ft
1500m à 5 km
500 à 1000 ft
800 à 1500m
200 à 500 ft
< 800m
< 200 ft
Symboles :   Orages  Brouillard  Fortes neiges  Fortes précipitations  Vent > 20 kt
SIGMETs :   Divers  Orages  Givrage  Turbulence  Onde Orograph.  Cendres Volcan.







- Altitude de l'aérodrome : 183 ft


LIBA - Amendola Foggia

DERNIER METAR :
  • 201855Z 24006KT CAVOK 05/04 Q1021 RMK SKC VIS MIN 9999 WIND THR11 23006KT WIND THR29 /////KT BLU

METARs EXPIRÉS :
  • 201755Z 23005KT CAVOK 06/04 Q1020 RMK SKC VIS MIN 9999 WIND THR11 23004KT WIND THR29 /////KT BLU
  • 201655Z VRB02KT CAVOK 09/02 Q1020 RMK SKC VIS MIN 9999 WIND THR11 VRB01KT WIND THR29 /////KT BLU
  • 201555Z 28005KT CAVOK 10/04 Q1020 RMK FEW FEW220 VIS MIN 9999 WIND THR11 28006KT WIND THR29 /////KT BLU

TAF TAF LIBA
Valide du 20 à 18h jusqu'au 21 à 03h UTC


201700Z 2018/2103 VRB03KT CAVOK
Pas de NOTAMs connus pour ce terrain.



MET'MAP, la Météo Aéronautique d'un coup d'oeil ! - Copyright ORBIFLY Décembre 2007 - Disclaimer

ORBIFLY MET'MAP TEAM :

Programmation & Développement : Alexandra Zaïnal
Conception & Développement : Baudouin d'Aumeries
Co-Programmation & Développement : Marc-Olivier Méhu
Soutien technique & logistique : Manuel Goepfert

Contact : metmap@orbifly.com




SOURCES & CREDITS :

   NOAA